Time;durP1;ratioP1;P1;durP2;ratioP2;P2;SDS_P1;SDS_P2;PMS_P1;PMS_P2;Temp;Humidity;BMP_temperature;BMP_pressure;BME280_temperature;BME280_humidity;BME280_pressure;Samples;Min_cycle;Max_cycle;Signal;HPM_P1;HPM_P2
2020/12/28 00:01:51;;;;;;;8.67;5.13;;;5.20;88.80;;;;;;5074381;28;20038;-79
2020/12/28 00:04:17;;;;;;;6.53;4.33;;;5.20;89.00;;;;;;5091210;28;20067;-76
2020/12/28 00:06:48;;;;;;;3.37;1.70;;;5.20;89.10;;;;;;5091531;28;20101;-76
2020/12/28 00:09:14;;;;;;;1.37;0.77;;;5.20;89.00;;;;;;5085010;28;20060;-79
2020/12/28 00:11:40;;;;;;;3.23;1.77;;;5.20;88.90;;;;;;5092748;28;20055;-78
2020/12/28 00:14:05;;;;;;;6.33;3.77;;;5.20;88.80;;;;;;5100028;28;20027;-78
2020/12/28 00:16:34;;;;;;;4.13;1.90;;;5.20;89.00;;;;;;5111907;28;20111;-79
2020/12/28 00:19:00;;;;;;;2.50;1.13;;;5.20;88.90;;;;;;5078113;28;20032;-79
2020/12/28 00:21:26;;;;;;;5.17;2.70;;;5.20;88.80;;;;;;5093553;28;20054;-79
2020/12/28 00:23:52;;;;;;;2.73;1.60;;;5.20;88.90;;;;;;5093401;28;20047;-79
2020/12/28 00:26:18;;;;;;;5.87;3.57;;;5.30;89.00;;;;;;5092411;28;20035;-79
2020/12/28 00:28:43;;;;;;;2.67;1.17;;;5.30;89.00;;;;;;5111678;28;20034;-79
2020/12/28 00:31:10;;;;;;;4.43;3.00;;;5.30;88.70;;;;;;5093871;28;20054;-78
2020/12/28 00:33:38;;;;;;;1.10;0.67;;;5.30;88.70;;;;;;5093207;28;20039;-79
2020/12/28 00:36:04;;;;;;;3.53;1.53;;;5.30;88.60;;;;;;5077630;28;20036;-79
2020/12/28 00:38:30;;;;;;;2.43;0.87;;;5.30;88.80;;;;;;5093018;28;20220;-79
2020/12/28 00:40:56;;;;;;;3.53;2.50;;;5.30;88.60;;;;;;5112567;28;20035;-79
2020/12/28 00:43:22;;;;;;;0.87;0.50;;;5.40;88.70;;;;;;5109176;28;20464;-80
2020/12/28 00:45:47;;;;;;;1.40;0.40;;;5.40;88.40;;;;;;5073544;28;20507;-78
2020/12/28 00:48:13;;;;;;;2.10;0.70;;;5.40;88.40;;;;;;5091339;28;20036;-78
2020/12/28 00:50:39;;;;;;;3.47;1.60;;;5.30;88.20;;;;;;5073447;28;20430;-78
2020/12/28 00:53:05;;;;;;;1.73;0.90;;;5.20;88.50;;;;;;5092245;28;20020;-79
2020/12/28 00:55:31;;;;;;;1.97;1.30;;;5.20;88.60;;;;;;5092550;28;20567;-79
2020/12/28 00:57:56;;;;;;;3.30;1.60;;;5.30;88.70;;;;;;5060587;28;20035;-78
2020/12/28 01:00:22;;;;;;;2.20;1.30;;;5.30;88.90;;;;;;5088053;28;20077;-78
2020/12/28 01:02:48;;;;;;;2.30;1.20;;;5.30;88.80;;;;;;5105236;28;20024;-78
2020/12/28 01:05:13;;;;;;;2.07;0.70;;;5.30;88.30;;;;;;5072361;28;20032;-79
2020/12/28 01:07:39;;;;;;;2.80;1.10;;;5.20;88.20;;;;;;5074892;28;20028;-79
2020/12/28 01:10:05;;;;;;;1.00;0.60;;;5.20;88.50;;;;;;5075917;28;20032;-78
2020/12/28 01:12:33;;;;;;;2.50;1.23;;;5.20;88.40;;;;;;5109931;28;20031;-79
2020/12/28 01:14:59;;;;;;;2.70;1.60;;;5.10;88.60;;;;;;5111229;28;20066;-79
2020/12/28 01:17:24;;;;;;;2.40;1.60;;;5.20;88.80;;;;;;5092867;28;20465;-78
2020/12/28 01:19:50;;;;;;;4.10;1.80;;;5.20;88.70;;;;;;5091967;28;20040;-79
2020/12/28 01:22:16;;;;;;;4.47;2.90;;;5.20;88.80;;;;;;5076631;28;20042;-79
2020/12/28 01:24:41;;;;;;;1.77;1.00;;;5.30;88.80;;;;;;5072723;28;20059;-79
2020/12/28 01:27:07;;;;;;;3.50;1.83;;;5.30;88.60;;;;;;5106939;28;20028;-78
2020/12/28 01:29:33;;;;;;;1.27;0.60;;;5.20;88.60;;;;;;5071605;28;20063;-79
2020/12/28 01:31:58;;;;;;;6.53;2.47;;;5.20;88.40;;;;;;5088287;28;20039;-79
2020/12/28 01:34:24;;;;;;;1.50;0.70;;;5.20;88.60;;;;;;5089058;28;20039;-79
2020/12/28 01:36:49;;;;;;;1.70;1.00;;;5.10;88.30;;;;;;5089459;28;20055;-79
2020/12/28 01:39:15;;;;;;;1.57;0.87;;;5.10;88.50;;;;;;5087975;28;20028;-78
2020/12/28 01:41:41;;;;;;;4.03;0.90;;;5.10;88.80;;;;;;5090855;28;20034;-79
2020/12/28 01:44:06;;;;;;;2.00;0.90;;;5.10;88.70;;;;;;5068925;28;20120;-79
2020/12/28 01:46:32;;;;;;;1.83;1.03;;;5.10;88.80;;;;;;5072419;28;20056;-79
2020/12/28 01:48:58;;;;;;;1.57;0.90;;;5.20;89.00;;;;;;5088780;28;20036;-78
2020/12/28 01:51:25;;;;;;;1.53;0.67;;;5.20;88.80;;;;;;5088860;28;20443;-78
2020/12/28 01:53:52;;;;;;;2.00;0.93;;;5.20;88.60;;;;;;5088060;28;20077;-79
2020/12/28 01:56:20;;;;;;;3.70;1.70;;;5.30;88.70;;;;;;5071121;28;20491;-78
2020/12/28 01:58:46;;;;;;;3.97;1.60;;;5.30;88.60;;;;;;5070132;28;20068;-79
2020/12/28 02:01:15;;;;;;;1.97;1.10;;;5.40;88.60;;;;;;5057429;28;20799;-79
2020/12/28 02:03:41;;;;;;;1.63;0.70;;;5.40;88.60;;;;;;5085261;28;20540;-79
2020/12/28 02:06:07;;;;;;;1.37;0.50;;;5.40;88.50;;;;;;5099729;28;20047;-79
2020/12/28 02:08:33;;;;;;;0.83;0.40;;;5.40;88.30;;;;;;5051698;28;20195;-79
2020/12/28 02:11:00;;;;;;;1.30;0.50;;;5.40;87.80;;;;;;5052079;28;20028;-79
2020/12/28 02:13:25;;;;;;;2.63;1.20;;;5.40;87.60;;;;;;5075034;28;20079;-79
2020/12/28 02:15:51;;;;;;;2.10;1.27;;;5.40;87.80;;;;;;5093520;28;20048;-78
2020/12/28 02:18:20;;;;;;;3.13;1.10;;;5.40;87.70;;;;;;5092283;28;20119;-78
2020/12/28 02:20:47;;;;;;;1.20;0.50;;;5.40;87.50;;;;;;5091548;28;20045;-76
2020/12/28 02:23:12;;;;;;;1.80;0.80;;;5.40;87.50;;;;;;5095685;28;20058;-79
2020/12/28 02:25:38;;;;;;;2.07;0.80;;;5.40;87.60;;;;;;5095518;28;20651;-79
2020/12/28 02:28:04;;;;;;;1.07;0.40;;;5.50;87.70;;;;;;5096441;28;20028;-78
2020/12/28 02:30:29;;;;;;;0.60;0.30;;;5.50;87.60;;;;;;5093341;28;20036;-79
2020/12/28 02:32:55;;;;;;;1.13;0.30;;;5.40;87.60;;;;;;5096153;28;20057;-79
2020/12/28 02:35:21;;;;;;;1.03;0.40;;;5.40;87.40;;;;;;5062049;28;20038;-79
2020/12/28 02:37:46;;;;;;;1.20;0.60;;;5.30;87.30;;;;;;5114254;28;20051;-78
2020/12/28 02:40:12;;;;;;;1.80;0.70;;;5.20;87.70;;;;;;5111074;28;20023;-79
2020/12/28 02:42:38;;;;;;;1.40;0.40;;;5.30;87.90;;;;;;5090995;28;20032;-78
2020/12/28 02:45:04;;;;;;;1.30;0.73;;;5.30;87.70;;;;;;5095227;28;20493;-78
2020/12/28 02:47:29;;;;;;;1.10;0.50;;;5.30;87.70;;;;;;5095733;28;20182;-79
2020/12/28 02:49:55;;;;;;;1.63;0.60;;;5.40;87.60;;;;;;5113583;28;20503;-78
2020/12/28 02:52:21;;;;;;;0.73;0.50;;;5.40;87.60;;;;;;5073999;28;20028;-78
2020/12/28 02:54:46;;;;;;;1.83;0.80;;;5.50;87.60;;;;;;5100551;28;20479;-79
2020/12/28 02:57:12;;;;;;;1.47;0.77;;;5.50;87.50;;;;;;5073109;28;20097;-80
2020/12/28 02:59:37;;;;;;;2.87;0.90;;;5.50;87.60;;;;;;5079768;28;20032;-79
2020/12/28 03:02:03;;;;;;;1.87;0.90;;;5.50;87.60;;;;;;5078088;28;20031;-78
2020/12/28 03:04:29;;;;;;;1.50;0.80;;;5.60;87.60;;;;;;5112077;28;20392;-79
2020/12/28 03:06:54;;;;;;;1.90;0.63;;;5.60;87.60;;;;;;5095840;28;20061;-78
2020/12/28 03:09:20;;;;;;;1.07;0.53;;;5.70;87.60;;;;;;5094399;28;20051;-79
2020/12/28 03:11:45;;;;;;;1.33;0.70;;;5.60;87.20;;;;;;5107777;28;20110;-79
2020/12/28 03:14:11;;;;;;;1.83;0.63;;;5.70;87.40;;;;;;5094664;28;20027;-78
2020/12/28 03:16:37;;;;;;;2.33;0.60;;;5.70;87.50;;;;;;5095104;28;20372;-79
2020/12/28 03:19:02;;;;;;;1.47;0.70;;;5.70;87.30;;;;;;5095180;28;20039;-79
2020/12/28 03:21:28;;;;;;;1.40;0.53;;;5.80;87.40;;;;;;5073741;28;20412;-79
2020/12/28 03:23:54;;;;;;;1.30;0.40;;;5.80;87.30;;;;;;5074233;28;20043;-78
2020/12/28 03:26:19;;;;;;;0.97;0.40;;;5.80;87.20;;;;;;5077121;28;20432;-78
2020/12/28 03:28:45;;;;;;;0.60;0.30;;;5.80;87.00;;;;;;5075586;28;20027;-79
2020/12/28 03:31:10;;;;;;;0.60;0.30;;;5.70;86.50;;;;;;5094341;28;20471;-78
2020/12/28 03:33:36;;;;;;;1.20;0.43;;;5.60;86.60;;;;;;5094423;28;20186;-79
2020/12/28 03:36:02;;;;;;;1.83;0.30;;;5.50;86.60;;;;;;5061748;28;20066;-76
2020/12/28 03:38:27;;;;;;;1.07;0.30;;;5.40;86.70;;;;;;5092612;28;20031;-76
2020/12/28 03:40:53;;;;;;;0.87;0.40;;;5.30;86.20;;;;;;5095345;28;20586;-76
2020/12/28 03:43:18;;;;;;;0.63;0.30;;;5.20;86.60;;;;;;5077999;28;20051;-76
2020/12/28 03:45:44;;;;;;;0.60;0.30;;;5.00;86.70;;;;;;5103825;28;20042;-76
2020/12/28 03:48:10;;;;;;;1.20;0.30;;;4.90;86.60;;;;;;5074829;28;20060;-77
2020/12/28 03:50:35;;;;;;;1.47;0.30;;;4.70;86.90;;;;;;5108610;28;20038;-77
2020/12/28 03:53:01;;;;;;;0.70;0.20;;;4.60;87.30;;;;;;5094361;28;20495;-77
2020/12/28 03:55:26;;;;;;;0.63;0.30;;;4.50;87.60;;;;;;5073826;28;20040;-75
2020/12/28 03:57:52;;;;;;;1.10;0.20;;;4.40;88.00;;;;;;5074993;28;20081;-77
2020/12/28 04:00:18;;;;;;;2.00;0.40;;;4.30;88.20;;;;;;5077442;28;20047;-77
2020/12/28 04:02:44;;;;;;;2.07;0.60;;;4.30;88.40;;;;;;5061275;28;20035;-79
2020/12/28 04:05:09;;;;;;;0.90;0.30;;;4.30;88.60;;;;;;5100804;28;20028;-78
2020/12/28 04:07:35;;;;;;;1.83;0.40;;;4.30;88.90;;;;;;5094296;28;20031;-79
2020/12/28 04:10:00;;;;;;;1.10;0.40;;;4.20;89.00;;;;;;5073660;28;20028;-78
2020/12/28 04:12:26;;;;;;;1.60;0.60;;;4.10;88.90;;;;;;5092707;28;20513;-79
2020/12/28 04:14:51;;;;;;;0.90;0.50;;;4.10;89.30;;;;;;5112882;28;20076;-79
2020/12/28 04:17:17;;;;;;;1.30;0.60;;;4.00;89.60;;;;;;5077132;28;20399;-78
2020/12/28 04:19:43;;;;;;;1.07;0.53;;;4.00;89.70;;;;;;5094036;28;20032;-78
2020/12/28 04:22:08;;;;;;;2.63;0.63;;;4.20;90.00;;;;;;5074949;28;20464;-78
2020/12/28 04:24:35;;;;;;;1.90;0.50;;;4.30;90.00;;;;;;5094625;28;20138;-79
2020/12/28 04:27:01;;;;;;;1.53;0.60;;;4.30;90.00;;;;;;5093864;28;20445;-78
2020/12/28 04:29:26;;;;;;;2.30;0.60;;;4.30;90.20;;;;;;5076594;28;20058;-79
2020/12/28 04:31:52;;;;;;;3.27;0.60;;;4.30;90.30;;;;;;5112248;28;20035;-78
2020/12/28 04:34:17;;;;;;;2.47;0.87;;;4.50;90.50;;;;;;5092726;28;20475;-79
2020/12/28 04:36:43;;;;;;;2.77;0.60;;;4.60;90.40;;;;;;5076885;28;21024;-79
2020/12/28 04:39:09;;;;;;;2.40;0.80;;;4.70;90.50;;;;;;5077629;28;20027;-79
2020/12/28 04:41:35;;;;;;;2.43;0.77;;;4.80;90.10;;;;;;5111276;28;20084;-78
2020/12/28 04:44:01;;;;;;;4.23;0.60;;;4.70;90.00;;;;;;5112327;28;20055;-79
2020/12/28 04:46:29;;;;;;;2.17;0.80;;;4.70;89.90;;;;;;5090070;28;20484;-79
2020/12/28 04:48:55;;;;;;;3.07;0.80;;;4.70;90.00;;;;;;5083250;28;20043;-79
2020/12/28 04:51:25;;;;;;;2.77;0.70;;;4.70;90.20;;;;;;5092177;28;20119;-78
2020/12/28 04:53:54;;;;;;;1.40;0.60;;;4.80;90.10;;;;;;5099758;28;20041;-79
2020/12/28 04:56:21;;;;;;;2.60;0.63;;;4.90;90.10;;;;;;5073205;28;20546;-78
2020/12/28 04:58:47;;;;;;;2.40;0.70;;;5.00;90.00;;;;;;5056647;28;20221;-79
2020/12/28 05:01:13;;;;;;;3.57;0.73;;;5.10;90.00;;;;;;5087776;28;20107;-79
2020/12/28 05:03:39;;;;;;;3.57;0.67;;;5.00;88.80;;;;;;5076753;28;20481;-78
2020/12/28 05:06:05;;;;;;;1.50;0.60;;;4.80;88.20;;;;;;5092872;28;20058;-79
2020/12/28 05:08:30;;;;;;;4.90;0.80;;;4.50;88.20;;;;;;5092518;28;20467;-79
2020/12/28 05:11:06;;;;;;;2.20;0.70;;;4.30;88.50;;;;;;5091687;28;20031;-79
2020/12/28 05:13:32;;;;;;;2.20;0.70;;;4.20;89.00;;;;;;5092630;28;20032;-78
2020/12/28 05:15:57;;;;;;;1.93;0.67;;;4.10;89.50;;;;;;5110972;28;20364;-78
2020/12/28 05:18:24;;;;;;;1.97;0.70;;;4.10;90.00;;;;;;5110072;28;20032;-79
2020/12/28 05:20:50;;;;;;;2.20;0.60;;;4.00;90.00;;;;;;5078688;28;20121;-79
2020/12/28 05:23:16;;;;;;;2.80;0.70;;;3.90;90.10;;;;;;5107436;28;20051;-78
2020/12/28 05:25:46;;;;;;;1.43;0.70;;;3.90;90.10;;;;;;5109726;28;20031;-79
2020/12/28 05:28:17;;;;;;;2.97;0.83;;;3.80;90.20;;;;;;5110251;28;20027;-79
2020/12/28 05:30:44;;;;;;;1.73;0.90;;;3.70;90.30;;;;;;5108027;28;20035;-78
2020/12/28 05:33:10;;;;;;;50.13;2.40;;;3.70;90.40;;;;;;5084191;28;20057;-79
2020/12/28 05:35:35;;;;;;;3.23;1.30;;;3.60;90.50;;;;;;5074915;28;20042;-79
2020/12/28 05:38:02;;;;;;;2.60;1.30;;;3.60;90.60;;;;;;5077987;28;20032;-78
2020/12/28 05:40:28;;;;;;;3.13;1.23;;;3.50;90.60;;;;;;5094772;28;20020;-79
2020/12/28 05:42:56;;;;;;;3.07;1.13;;;3.60;90.70;;;;;;5091881;28;20473;-78
2020/12/28 05:45:21;;;;;;;2.63;1.10;;;3.60;90.70;;;;;;5111388;28;20019;-78
2020/12/28 05:47:50;;;;;;;3.23;1.07;;;3.50;90.70;;;;;;5091441;28;20122;-78
2020/12/28 05:50:20;;;;;;;2.03;1.20;;;3.50;90.70;;;;;;5093146;28;20059;-78
2020/12/28 05:52:51;;;;;;;1.87;1.27;;;3.40;90.80;;;;;;5092347;28;20024;-78
2020/12/28 05:55:19;;;;;;;2.97;1.30;;;3.40;90.90;;;;;;5092353;28;20035;-78
2020/12/28 05:57:45;;;;;;;3.17;1.00;;;3.50;91.00;;;;;;5092526;28;20088;-79
2020/12/28 06:00:12;;;;;;;2.50;1.27;;;3.60;91.10;;;;;;5091895;28;20126;-78
2020/12/28 06:02:39;;;;;;;2.03;1.30;;;3.70;91.10;;;;;;5071685;28;20115;-78
2020/12/28 06:05:17;;;;;;;3.60;1.30;;;3.70;90.80;;;;;;5063501;28;20032;-78
2020/12/28 06:07:43;;;;;;;3.67;1.20;;;3.60;90.80;;;;;;5095589;28;20038;-78
2020/12/28 06:10:10;;;;;;;1.70;1.10;;;3.50;90.80;;;;;;5087291;28;20118;-78
2020/12/28 06:12:37;;;;;;;2.27;1.10;;;3.50;90.90;;;;;;5092762;28;20031;-78
2020/12/28 06:15:03;;;;;;;1.90;1.37;;;3.40;90.90;;;;;;5092378;28;20077;-78
2020/12/28 06:17:34;;;;;;;2.87;0.80;;;3.40;91.00;;;;;;5092305;28;20047;-78
2020/12/28 06:20:05;;;;;;;1.90;1.00;;;3.40;91.10;;;;;;5092304;28;20023;-79
2020/12/28 06:22:31;;;;;;;1.63;0.93;;;3.30;91.10;;;;;;5093044;28;20100;-79
2020/12/28 06:25:14;;;;;;;1.27;0.93;;;3.40;91.20;;;;;;5078114;28;20138;-78
2020/12/28 06:27:47;;;;;;;3.33;0.80;;;3.50;91.20;;;;;;5092256;28;20367;-79
2020/12/28 06:30:19;;;;;;;2.25;0.98;;;3.60;91.20;;;;;;5085408;28;20020;-78
2020/12/28 06:32:47;;;;;;;2.47;1.00;;;3.60;91.10;;;;;;5097226;28;20539;-78
2020/12/28 06:35:15;;;;;;;1.77;0.73;;;3.60;91.10;;;;;;5092602;28;20071;-79
2020/12/28 06:37:44;;;;;;;2.97;0.80;;;3.50;91.00;;;;;;5108484;28;20483;-78
2020/12/28 06:40:12;;;;;;;2.43;0.70;;;3.60;91.00;;;;;;5110918;28;20024;-78
2020/12/28 06:42:39;;;;;;;2.97;1.00;;;3.60;90.90;;;;;;5106066;28;20023;-78
2020/12/28 06:45:17;;;;;;;1.83;0.80;;;3.60;90.90;;;;;;5108527;28;20032;-78
2020/12/28 06:47:45;;;;;;;1.87;0.60;;;3.70;90.90;;;;;;5088099;28;20036;-78
2020/12/28 06:50:11;;;;;;;2.60;0.80;;;3.70;90.80;;;;;;5071985;28;20524;-79
2020/12/28 06:52:37;;;;;;;2.33;1.00;;;3.70;90.80;;;;;;5109624;28;20100;-78
2020/12/28 06:55:10;;;;;;;4.93;0.90;;;3.70;90.80;;;;;;5101490;28;20122;-78
2020/12/28 06:57:37;;;;;;;4.60;1.15;;;3.80;90.70;;;;;;5084424;28;20032;-78
2020/12/28 07:00:30;;;;;;;2.90;0.90;;;3.70;90.60;;;;;;5113310;28;20212;-78
2020/12/28 07:02:56;;;;;;;2.75;0.95;;;3.70;90.70;;;;;;5093939;28;20085;-79
2020/12/28 07:05:23;;;;;;;5.20;1.77;;;3.70;90.50;;;;;;5095129;28;20379;-79
2020/12/28 07:07:50;;;;;;;2.97;1.50;;;3.60;90.50;;;;;;5111172;28;20475;-79
2020/12/28 07:10:20;;;;;;;2.60;1.40;;;3.60;90.50;;;;;;5078247;28;20089;-79
2020/12/28 07:12:47;;;;;;;2.90;1.40;;;3.50;90.50;;;;;;5095199;28;20032;-79
2020/12/28 07:15:13;;;;;;;4.33;1.30;;;3.50;90.60;;;;;;5108460;28;20502;-79
2020/12/28 07:17:39;;;;;;;2.00;1.00;;;3.40;90.70;;;;;;5087389;28;20036;-79
2020/12/28 07:20:07;;;;;;;2.87;1.00;;;3.30;90.60;;;;;;5095940;28;20546;-79
2020/12/28 07:22:34;;;;;;;2.93;1.00;;;3.30;90.70;;;;;;5092462;28;20181;-79
2020/12/28 07:25:00;;;;;;;2.60;1.00;;;3.30;90.80;;;;;;5077053;28;20126;-79
2020/12/28 07:27:26;;;;;;;1.47;0.70;;;3.30;90.70;;;;;;5078057;28;20134;-79
2020/12/28 07:29:53;;;;;;;2.43;0.80;;;3.30;90.70;;;;;;5110532;28;20028;-79
2020/12/28 07:32:19;;;;;;;2.73;0.90;;;3.30;90.70;;;;;;5113448;28;20109;-79
2020/12/28 07:34:52;;;;;;;1.97;0.80;;;3.20;90.70;;;;;;5076878;28;20479;-79
2020/12/28 07:37:19;;;;;;;2.50;0.70;;;3.20;90.70;;;;;;5095465;28;20032;-79
2020/12/28 07:39:47;;;;;;;2.23;0.73;;;3.20;90.80;;;;;;5073464;28;20028;-79
2020/12/28 07:42:21;;;;;;;2.77;0.87;;;3.20;90.70;;;;;;5079261;28;20039;-79
2020/12/28 07:44:58;;;;;;;2.77;0.70;;;3.20;90.80;;;;;;5110348;28;20069;-79
2020/12/28 07:48:00;;;;;;;3.23;0.70;;;3.20;90.80;;;;;;5110920;28;20023;-79
2020/12/28 07:50:26;;;;;;;1.93;0.60;;;3.30;90.70;;;;;;5093544;28;20123;-79
2020/12/28 07:52:59;;;;;;;1.70;0.70;;;3.40;90.50;;;;;;5112251;28;20058;-79
2020/12/28 07:55:29;;;;;;;1.70;0.90;;;3.40;90.20;;;;;;5112075;28;20032;-79
2020/12/28 07:58:21;;;;;;;4.87;1.10;;;3.40;90.20;;;;;;5111768;28;20027;-80
2020/12/28 08:00:52;;;;;;;2.90;0.70;;;3.40;90.20;;;;;;5097915;27;20039;-79
2020/12/28 08:03:49;;;;;;;4.03;0.80;;;3.40;90.20;;;;;;5105788;27;20038;-79
2020/12/28 08:06:16;;;;;;;2.93;0.80;;;3.40;90.20;;;;;;5094227;28;20391;-79
2020/12/28 08:08:42;;;;;;;4.10;1.00;;;3.30;90.10;;;;;;5068937;28;20036;-79
2020/12/28 08:11:07;;;;;;;2.57;1.03;;;3.40;90.30;;;;;;5084461;28;20035;-79
2020/12/28 08:13:36;;;;;;;4.33;1.40;;;3.50;90.50;;;;;;5087032;28;20495;-79
2020/12/28 08:16:12;;;;;;;3.77;1.20;;;3.70;90.50;;;;;;5083254;28;20039;-79
2020/12/28 08:18:44;;;;;;;1.97;1.17;;;4.10;90.70;;;;;;5083417;28;20040;-79
2020/12/28 08:21:10;;;;;;;4.90;0.80;;;4.50;90.20;;;;;;5084608;28;20031;-80
2020/12/28 08:23:36;;;;;;;2.53;0.80;;;4.90;89.10;;;;;;5070589;28;20066;-80
2020/12/28 08:26:01;;;;;;;3.40;0.80;;;5.20;86.80;;;;;;5071959;28;20039;-80
2020/12/28 08:28:27;;;;;;;2.67;0.60;;;5.30;84.30;;;;;;5101851;28;20027;-80
2020/12/28 08:30:53;;;;;;;2.13;0.50;;;5.30;82.70;;;;;;5091973;28;20493;-80
2020/12/28 08:33:19;;;;;;;2.07;0.90;;;5.20;82.70;;;;;;5060983;28;20034;-80
2020/12/28 08:35:53;;;;;;;2.83;0.77;;;5.10;82.20;;;;;;5076005;28;20031;-80
2020/12/28 08:38:30;;;;;;;1.77;0.70;;;5.00;82.70;;;;;;5092575;28;20146;-81
2020/12/28 08:40:55;;;;;;;4.10;0.70;;;4.90;82.70;;;;;;5085232;28;20038;-80
2020/12/28 08:43:21;;;;;;;2.23;0.70;;;4.80;82.50;;;;;;5094336;28;20415;-80
2020/12/28 08:45:47;;;;;;;3.10;1.17;;;4.90;82.90;;;;;;5100446;28;20046;-80
2020/12/28 08:48:20;;;;;;;4.57;0.60;;;4.90;83.10;;;;;;5085108;28;20039;-80
2020/12/28 08:50:46;;;;;;;3.55;0.88;;;5.00;82.40;;;;;;5103109;28;20032;-80
2020/12/28 08:53:11;;;;;;;7.00;0.80;;;4.90;81.90;;;;;;5081200;28;20043;-80
2020/12/28 08:55:37;;;;;;;4.67;0.73;;;4.90;81.80;;;;;;5085797;28;20106;-80
2020/12/28 08:58:02;;;;;;;4.20;0.90;;;4.80;82.10;;;;;;5064647;28;20474;-80
2020/12/28 09:00:28;;;;;;;6.57;1.17;;;4.80;82.10;;;;;;5063496;28;20096;-79
2020/12/28 09:02:55;;;;;;;2.13;0.63;;;4.80;82.00;;;;;;5105016;28;20028;-78
2020/12/28 09:05:21;;;;;;;2.83;0.40;;;4.80;82.60;;;;;;5094008;28;20115;-80
2020/12/28 09:07:47;;;;;;;3.40;0.50;;;5.00;82.10;;;;;;5108972;28;20024;-80
2020/12/28 09:10:14;;;;;;;3.33;0.53;;;5.40;81.80;;;;;;5076204;28;20037;-78
2020/12/28 09:12:40;;;;;;;4.67;0.63;;;5.70;80.70;;;;;;5093277;28;20058;-78
2020/12/28 09:15:07;;;;;;;4.47;0.50;;;6.00;79.10;;;;;;5088819;28;20024;-77
2020/12/28 09:17:32;;;;;;;9.17;1.93;;;6.20;77.60;;;;;;5110806;28;20035;-79
2020/12/28 09:19:58;;;;;;;4.63;2.00;;;6.30;78.00;;;;;;5070769;28;20024;-79
2020/12/28 09:22:24;;;;;;;1.83;0.40;;;6.50;76.60;;;;;;5078616;28;20066;-79
2020/12/28 09:24:49;;;;;;;6.20;1.03;;;6.70;75.70;;;;;;5073036;28;20048;-78
2020/12/28 09:27:15;;;;;;;3.63;0.80;;;6.80;75.90;;;;;;5079322;28;20036;-79
2020/12/28 09:29:41;;;;;;;5.93;1.67;;;7.00;75.20;;;;;;5111289;28;20038;-79
2020/12/28 09:32:06;;;;;;;3.10;0.80;;;7.30;74.10;;;;;;5092964;28;20249;-79
2020/12/28 09:34:32;;;;;;;2.13;0.50;;;7.50;74.00;;;;;;5069771;28;20027;-78
2020/12/28 09:37:03;;;;;;;3.37;0.90;;;7.80;72.80;;;;;;5089304;28;20035;-78
2020/12/28 09:39:29;;;;;;;3.50;0.40;;;8.20;71.50;;;;;;5089238;28;20212;-79
2020/12/28 09:41:56;;;;;;;3.00;0.50;;;8.40;70.90;;;;;;5108859;28;20470;-80
2020/12/28 09:44:21;;;;;;;2.67;0.60;;;8.60;70.20;;;;;;5081259;28;20039;-79
2020/12/28 09:46:49;;;;;;;3.63;0.93;;;8.80;68.80;;;;;;5071534;28;20032;-79
2020/12/28 09:49:15;;;;;;;4.43;0.50;;;8.90;68.90;;;;;;5074150;28;20046;-80
2020/12/28 09:51:44;;;;;;;2.97;0.60;;;8.90;67.40;;;;;;5076705;28;20545;-82
2020/12/28 09:54:10;;;;;;;1.40;0.40;;;9.00;68.00;;;;;;5088279;28;20057;-79
2020/12/28 09:56:36;;;;;;;2.37;0.70;;;9.00;67.90;;;;;;5093685;28;20112;-81
2020/12/28 09:59:02;;;;;;;3.47;0.73;;;9.20;67.80;;;;;;5091106;28;20046;-80
2020/12/28 10:01:27;;;;;;;3.43;0.80;;;9.50;66.30;;;;;;5073508;28;20039;-79
2020/12/28 10:03:53;;;;;;;6.70;2.27;;;9.60;66.10;;;;;;5093758;28;20024;-80
2020/12/28 10:06:31;;;;;;;3.90;0.70;;;9.60;66.00;;;;;;5087562;28;20028;-80
2020/12/28 10:08:58;;;;;;;4.10;0.50;;;9.40;64.80;;;;;;5085391;28;20311;-80
2020/12/28 10:11:23;;;;;;;3.27;0.50;;;8.80;66.00;;;;;;5082846;28;20035;-80
2020/12/28 10:13:49;;;;;;;2.87;0.67;;;8.60;67.30;;;;;;5080885;28;20043;-80
2020/12/28 10:16:21;;;;;;;5.43;0.70;;;8.20;67.20;;;;;;5073458;28;20437;-81
2020/12/28 10:18:46;;;;;;;3.80;0.50;;;8.00;68.60;;;;;;5092359;28;20384;-79
2020/12/28 10:21:12;;;;;;;2.10;0.60;;;7.70;68.70;;;;;;5091944;28;20038;-80
2020/12/28 10:23:38;;;;;;;3.53;0.67;;;7.60;69.40;;;;;;5075551;28;20052;-81
2020/12/28 10:26:05;;;;;;;2.93;0.70;;;7.50;69.90;;;;;;5092588;28;20115;-80
2020/12/28 10:28:31;;;;;;;2.80;0.63;;;7.50;70.10;;;;;;5092613;28;20416;-79
2020/12/28 10:30:56;;;;;;;2.23;0.80;;;7.40;70.50;;;;;;5109161;28;20042;-80
2020/12/28 10:33:22;;;;;;;3.10;0.80;;;7.20;71.00;;;;;;5078376;28;20032;-80
2020/12/28 10:35:48;;;;;;;4.50;0.60;;;7.10;71.30;;;;;;5075606;28;20082;-78
2020/12/28 10:38:13;;;;;;;2.50;0.67;;;6.90;71.90;;;;;;5094586;28;20060;-80
2020/12/28 10:40:39;;;;;;;3.43;0.60;;;6.70;72.60;;;;;;5060775;28;20440;-80
2020/12/28 10:43:05;;;;;;;3.23;0.70;;;6.80;73.00;;;;;;5058838;28;20817;-81
2020/12/28 10:45:30;;;;;;;1.60;0.60;;;6.80;73.40;;;;;;5053923;28;20031;-80
2020/12/28 10:47:56;;;;;;;4.70;0.60;;;6.90;72.60;;;;;;5063194;28;20024;-80
2020/12/28 10:50:22;;;;;;;6.40;0.87;;;6.90;72.20;;;;;;5087849;28;20586;-80
2020/12/28 10:52:47;;;;;;;3.30;0.70;;;6.90;72.90;;;;;;5096559;28;20169;-79
2020/12/28 10:55:13;;;;;;;2.77;0.63;;;7.00;72.10;;;;;;5097296;28;20040;-80
2020/12/28 10:57:38;;;;;;;2.77;0.60;;;7.00;71.80;;;;;;5096565;28;20039;-79
2020/12/28 11:00:04;;;;;;;4.67;1.10;;;6.80;72.20;;;;;;5094731;28;20099;-80
2020/12/28 11:02:31;;;;;;;2.17;0.50;;;6.80;72.50;;;;;;5115381;28;20486;-80
2020/12/28 11:04:56;;;;;;;4.07;0.50;;;6.70;72.50;;;;;;5096313;28;20051;-78
2020/12/28 11:07:22;;;;;;;7.83;0.77;;;6.60;72.80;;;;;;5080550;28;20028;-80
2020/12/28 11:09:47;;;;;;;2.93;0.60;;;6.50;73.40;;;;;;5113652;28;20470;-79
2020/12/28 11:12:13;;;;;;;4.00;0.57;;;6.40;73.60;;;;;;5078076;28;20032;-81
2020/12/28 11:14:39;;;;;;;1.70;0.73;;;6.40;73.80;;;;;;5095958;28;20027;-80
2020/12/28 11:17:04;;;;;;;3.87;0.70;;;6.40;73.90;;;;;;5113436;28;20027;-79
2020/12/28 11:19:30;;;;;;;4.40;0.70;;;6.50;73.80;;;;;;5059033;28;20031;-80
2020/12/28 11:21:56;;;;;;;3.33;1.10;;;6.40;73.80;;;;;;5091789;28;20486;-79
2020/12/28 11:24:21;;;;;;;3.97;1.33;;;6.40;74.20;;;;;;5078345;28;20059;-80
2020/12/28 11:26:48;;;;;;;3.50;0.70;;;6.50;74.30;;;;;;5095923;28;20032;-79
2020/12/28 11:29:15;;;;;;;4.07;0.50;;;6.30;74.50;;;;;;5094327;28;20037;-79
2020/12/28 11:31:41;;;;;;;4.53;0.47;;;6.30;74.70;;;;;;5059442;28;20028;-79
2020/12/28 11:34:06;;;;;;;3.00;0.60;;;6.30;75.20;;;;;;5091432;28;20062;-78
2020/12/28 11:36:32;;;;;;;3.60;0.67;;;6.20;74.30;;;;;;5080575;28;20027;-80
2020/12/28 11:38:58;;;;;;;3.03;0.50;;;6.10;75.10;;;;;;5065580;28;20043;-79
2020/12/28 11:41:24;;;;;;;2.87;0.40;;;6.20;75.40;;;;;;5111694;28;20035;-78
2020/12/28 11:43:50;;;;;;;3.57;0.40;;;6.10;75.60;;;;;;5112455;28;20061;-77
2020/12/28 11:46:16;;;;;;;2.97;0.40;;;6.10;75.60;;;;;;5094093;28;20036;-78
2020/12/28 11:48:42;;;;;;;3.03;0.80;;;6.10;75.60;;;;;;5114227;28;20038;-78
2020/12/28 11:51:09;;;;;;;4.27;0.60;;;6.10;76.40;;;;;;5092898;28;20043;-78
2020/12/28 11:53:36;;;;;;;1.70;0.50;;;6.10;75.90;;;;;;5092779;28;20043;-78
2020/12/28 11:56:03;;;;;;;3.97;0.40;;;6.10;75.70;;;;;;5093990;28;20084;-78
2020/12/28 11:58:36;;;;;;;4.10;0.40;;;6.10;75.70;;;;;;5090812;28;20031;-78
2020/12/28 12:01:03;;;;;;;2.13;0.40;;;6.10;75.30;;;;;;5091634;28;20032;-78
2020/12/28 12:03:29;;;;;;;2.03;0.77;;;6.10;75.70;;;;;;5074489;28;20032;-78
2020/12/28 12:05:59;;;;;;;1.80;0.43;;;6.10;75.60;;;;;;5112274;28;20057;-77
2020/12/28 12:08:28;;;;;;;1.83;0.40;;;6.20;75.10;;;;;;5093535;28;20024;-78
2020/12/28 12:10:53;;;;;;;2.40;0.40;;;6.30;74.90;;;;;;5093921;28;20035;-77
2020/12/28 12:13:19;;;;;;;2.00;0.40;;;6.50;74.50;;;;;;5111551;28;20031;-78
2020/12/28 12:15:47;;;;;;;2.37;0.40;;;6.60;74.20;;;;;;5112077;28;20058;-79
2020/12/28 12:18:13;;;;;;;2.10;0.47;;;6.80;73.60;;;;;;5093882;28;20023;-78
2020/12/28 12:20:39;;;;;;;2.10;0.50;;;6.90;73.10;;;;;;5056431;28;20059;-78
2020/12/28 12:23:05;;;;;;;3.37;0.40;;;6.90;73.00;;;;;;5090411;28;20028;-78
2020/12/28 12:25:32;;;;;;;2.73;0.30;;;6.90;72.60;;;;;;5100168;28;20074;-77
2020/12/28 12:27:57;;;;;;;1.20;0.40;;;6.90;72.30;;;;;;5069932;28;20036;-78
2020/12/28 12:30:23;;;;;;;2.47;0.40;;;6.90;72.60;;;;;;5068604;28;20085;-78
2020/12/28 12:32:49;;;;;;;1.23;0.30;;;6.90;73.00;;;;;;5070037;28;20027;-78
2020/12/28 12:35:14;;;;;;;1.80;0.47;;;6.80;73.10;;;;;;5083492;28;20117;-79
2020/12/28 12:37:40;;;;;;;4.50;0.40;;;6.90;72.70;;;;;;5084688;28;20565;-79
2020/12/28 12:40:06;;;;;;;4.03;0.40;;;6.80;73.40;;;;;;5080474;28;20040;-79
2020/12/28 12:42:31;;;;;;;3.23;0.40;;;6.70;73.00;;;;;;5103082;28;20107;-79
2020/12/28 12:44:57;;;;;;;1.60;0.30;;;6.80;73.20;;;;;;5068116;28;20058;-78
2020/12/28 12:47:23;;;;;;;2.47;0.40;;;6.70;72.90;;;;;;5072757;28;20103;-79
2020/12/28 12:49:48;;;;;;;1.03;0.30;;;6.60;72.90;;;;;;5079279;28;20044;-79
2020/12/28 12:52:20;;;;;;;3.73;0.33;;;6.60;73.30;;;;;;5089664;28;20042;-79
2020/12/28 12:54:46;;;;;;;2.30;0.50;;;6.50;73.40;;;;;;5110744;28;20058;-79
2020/12/28 12:57:11;;;;;;;2.30;0.40;;;6.60;73.60;;;;;;5111104;28;20019;-78